createdAt,value
2022-12-11T00:02:19.499Z,96040.47
2022-12-11T00:04:46.477Z,96037.03
2022-12-11T00:07:13.139Z,96037.81
2022-12-11T00:09:41.053Z,96045.78
2022-12-11T00:12:12.028Z,96044.88
2022-12-11T00:14:38.626Z,96037.25
2022-12-11T00:17:05.293Z,96046.69
2022-12-11T00:19:32.001Z,96047.31
2022-12-11T00:21:58.672Z,96046.72
2022-12-11T00:24:25.717Z,96042.75
2022-12-11T00:26:52.383Z,96039.97
2022-12-11T00:29:19.136Z,96045.97
2022-12-11T00:31:45.802Z,96036.00
2022-12-11T00:34:12.407Z,96042.38
2022-12-11T00:36:39.265Z,96040.78
2022-12-11T00:39:06.054Z,96040.81
2022-12-11T00:41:32.819Z,96058.13
2022-12-11T00:43:59.440Z,96051.25
2022-12-11T00:46:26.125Z,96051.31
2022-12-11T00:48:52.840Z,96048.84
2022-12-11T00:51:19.582Z,96041.06
2022-12-11T00:53:46.249Z,96037.44
2022-12-11T00:56:15.050Z,96032.56
2022-12-11T00:58:41.654Z,96036.25
2022-12-11T01:01:13.347Z,96037.94
2022-12-11T01:03:40.054Z,96046.00
2022-12-11T01:06:06.919Z,96051.50
2022-12-11T01:08:38.377Z,96061.41
2022-12-11T01:11:07.605Z,96049.56
2022-12-11T01:13:34.445Z,96039.34
2022-12-11T01:16:12.481Z,96039.78
2022-12-11T01:18:39.292Z,96045.47
2022-12-11T01:21:10.542Z,96038.63
2022-12-11T01:23:37.272Z,96049.69
2022-12-11T01:26:08.639Z,96066.47
2022-12-11T01:28:35.244Z,96059.75
2022-12-11T01:31:01.999Z,96071.06
2022-12-11T01:33:28.699Z,96082.44
2022-12-11T01:35:55.559Z,96086.06
2022-12-11T01:38:22.678Z,96081.38
2022-12-11T01:40:50.093Z,96072.50
2022-12-11T01:43:16.805Z,96072.47
2022-12-11T01:45:44.444Z,96066.28
2022-12-11T01:48:21.424Z,96080.28
2022-12-11T01:50:52.586Z,96078.44
2022-12-11T01:53:31.285Z,96080.69
2022-12-11T01:55:57.909Z,96070.63
2022-12-11T01:58:27.504Z,96067.50
2022-12-11T02:00:54.178Z,96068.84
2022-12-11T02:03:20.855Z,96066.13
2022-12-11T02:05:47.542Z,96061.41
2022-12-11T02:08:14.296Z,96066.63
2022-12-11T02:11:04.540Z,96058.44
2022-12-11T02:13:37.189Z,96071.75
2022-12-11T02:16:19.823Z,96062.41
2022-12-11T02:18:46.371Z,96069.00
2022-12-11T02:21:12.892Z,96075.50
2022-12-11T02:24:04.165Z,96079.94
2022-12-11T02:26:36.757Z,96083.41
2022-12-11T02:29:06.633Z,96087.19
2022-12-11T02:31:40.655Z,96089.22
2022-12-11T02:34:14.190Z,96084.75
2022-12-11T02:36:43.538Z,96080.16
2022-12-11T02:39:11.097Z,96075.53
2022-12-11T02:41:37.725Z,96078.69
2022-12-11T02:44:04.385Z,96073.88
2022-12-11T02:46:31.036Z,96085.97
2022-12-11T02:48:57.692Z,96087.88
2022-12-11T02:51:27.141Z,96084.34
2022-12-11T02:53:54.888Z,96080.78
2022-12-11T02:56:24.518Z,96082.22
2022-12-11T02:58:58.736Z,96080.16
2022-12-11T03:01:26.268Z,96092.66
2022-12-11T03:03:54.071Z,96096.00
2022-12-11T03:06:22.049Z,96098.91
2022-12-11T03:08:48.709Z,96097.44
2022-12-11T03:11:15.352Z,96099.44
2022-12-11T03:13:41.989Z,96092.25
2022-12-11T03:16:14.275Z,96093.69
2022-12-11T03:19:02.348Z,96102.22
2022-12-11T03:21:43.009Z,96094.25
2022-12-11T03:24:19.604Z,96089.34
2022-12-11T03:26:56.573Z,96082.16
2022-12-11T03:29:26.139Z,96083.34
2022-12-11T03:32:09.805Z,96079.88
2022-12-11T03:34:48.892Z,96084.91
2022-12-11T03:37:15.582Z,96083.66
2022-12-11T03:39:44.755Z,96088.91
2022-12-11T03:42:12.485Z,96087.81
2022-12-11T03:44:39.263Z,96090.56
2022-12-11T03:47:07.086Z,96085.53
2022-12-11T03:49:36.020Z,96086.91
2022-12-11T03:52:03.396Z,96091.19
2022-12-11T03:54:30.023Z,96087.88
2022-12-11T03:56:58.190Z,96089.03
2022-12-11T03:59:24.867Z,96088.78
2022-12-11T04:01:51.625Z,96093.59
2022-12-11T04:04:18.318Z,96094.81
2022-12-11T04:06:45.010Z,96095.91
2022-12-11T04:09:11.664Z,96096.22
2022-12-11T04:11:38.339Z,96098.84
2022-12-11T04:14:09.865Z,96106.34
2022-12-11T04:16:36.510Z,96097.00
2022-12-11T04:19:03.660Z,96099.75
2022-12-11T04:21:32.859Z,96096.34
2022-12-11T04:24:01.763Z,96096.19
2022-12-11T04:26:28.397Z,96095.59
2022-12-11T04:28:55.110Z,96087.81
2022-12-11T04:31:21.867Z,96095.41
2022-12-11T04:33:48.518Z,96091.50
2022-12-11T04:36:15.128Z,96090.78
2022-12-11T04:38:41.802Z,96072.97
2022-12-11T04:41:10.989Z,96084.13
2022-12-11T04:43:37.644Z,96080.97
2022-12-11T04:46:08.760Z,96083.88
2022-12-11T04:48:35.978Z,96079.13
2022-12-11T04:51:02.602Z,96076.19
2022-12-11T04:53:29.258Z,96083.56
2022-12-11T04:55:56.143Z,96075.97
2022-12-11T04:58:23.270Z,96074.78
2022-12-11T05:00:49.879Z,96071.38
2022-12-11T05:03:16.492Z,96074.59
2022-12-11T05:05:52.964Z,96075.47
2022-12-11T05:08:20.140Z,96076.47
2022-12-11T05:10:56.048Z,96063.16
2022-12-11T05:13:22.722Z,96064.16
2022-12-11T05:15:49.365Z,96068.31
2022-12-11T05:18:16.072Z,96070.72
2022-12-11T05:20:42.708Z,96062.97
2022-12-11T05:23:09.310Z,96068.38
2022-12-11T05:25:35.995Z,96069.88
2022-12-11T05:28:02.660Z,96064.22
2022-12-11T05:30:29.400Z,96060.47
2022-12-11T05:32:56.184Z,96066.16
2022-12-11T05:35:22.801Z,96076.47
2022-12-11T05:37:50.328Z,96075.25
2022-12-11T05:40:17.159Z,96072.81
2022-12-11T05:42:43.753Z,96071.44
2022-12-11T05:45:10.925Z,96071.63
2022-12-11T05:47:37.725Z,96068.84
2022-12-11T05:50:04.441Z,96073.22
2022-12-11T05:52:31.625Z,96066.31
2022-12-11T05:54:58.241Z,96062.88
2022-12-11T05:57:24.933Z,96075.03
2022-12-11T05:59:51.636Z,96065.44
2022-12-11T06:02:18.595Z,96064.59
2022-12-11T06:04:45.290Z,96054.41
2022-12-11T06:07:14.237Z,96052.78
2022-12-11T06:09:40.842Z,96052.16
2022-12-11T06:12:07.491Z,96053.84
2022-12-11T06:14:34.192Z,96045.66
2022-12-11T06:17:00.841Z,96024.31
2022-12-11T06:19:29.739Z,96041.06
2022-12-11T06:21:58.567Z,96037.50
2022-12-11T06:24:25.236Z,96038.09
2022-12-11T06:26:51.858Z,96043.03
2022-12-11T06:29:18.455Z,96043.91
2022-12-11T06:31:45.084Z,96049.97
2022-12-11T06:34:12.348Z,96049.97
2022-12-11T06:36:38.997Z,96058.03
2022-12-11T06:39:05.683Z,96053.53
2022-12-11T06:41:32.306Z,96052.56
2022-12-11T06:43:58.920Z,96049.63
2022-12-11T06:46:25.590Z,96057.66
2022-12-11T06:48:52.283Z,96051.97
2022-12-11T06:51:20.659Z,96059.44
2022-12-11T06:53:54.253Z,96041.97
2022-12-11T06:56:20.920Z,96041.56
2022-12-11T06:58:47.724Z,96049.34
2022-12-11T07:01:24.774Z,96044.91
2022-12-11T07:03:55.235Z,96054.59
2022-12-11T07:06:21.911Z,96046.97
2022-12-11T07:08:48.566Z,96041.88
2022-12-11T07:11:16.225Z,96047.44
2022-12-11T07:13:43.023Z,96039.31
2022-12-11T07:16:10.274Z,96048.78
2022-12-11T07:18:40.860Z,96051.50
2022-12-11T07:21:07.698Z,96048.22
2022-12-11T07:23:34.553Z,96038.50
2022-12-11T07:26:08.307Z,96049.16
2022-12-11T07:28:34.968Z,96057.28
2022-12-11T07:31:08.243Z,96051.69
2022-12-11T07:33:34.906Z,96058.81
2022-12-11T07:36:05.714Z,96068.28
2022-12-11T07:38:32.345Z,96062.19
2022-12-11T07:41:04.875Z,96077.66
2022-12-11T07:43:31.781Z,96068.88
2022-12-11T07:46:05.149Z,96061.69
2022-12-11T07:48:31.884Z,96066.00
2022-12-11T07:51:14.481Z,96069.72
2022-12-11T07:53:44.931Z,96060.22
2022-12-11T07:56:11.785Z,96059.00
2022-12-11T07:58:38.459Z,96061.34
2022-12-11T08:01:06.372Z,96057.91
2022-12-11T08:03:32.997Z,96049.75
2022-12-11T08:05:59.696Z,96056.72
2022-12-11T08:08:26.372Z,96044.28
2022-12-11T08:10:53.049Z,96042.22
2022-12-11T08:13:19.699Z,96043.47
2022-12-11T08:15:46.387Z,96048.69
2022-12-11T08:18:13.742Z,96052.53
2022-12-11T08:20:40.443Z,96048.50
2022-12-11T08:23:09.182Z,96048.41
2022-12-11T08:25:35.826Z,96051.97
2022-12-11T08:28:02.555Z,96053.06
2022-12-11T08:30:29.219Z,96044.44
2022-12-11T08:32:55.938Z,96047.41
2022-12-11T08:35:22.814Z,96041.28
2022-12-11T08:37:49.460Z,96042.66
2022-12-11T08:40:16.137Z,96033.66
2022-12-11T08:42:42.869Z,96029.06
2022-12-11T08:45:10.242Z,96034.50
2022-12-11T08:47:37.010Z,96029.25
2022-12-11T08:50:04.204Z,96027.84
2022-12-11T08:52:30.858Z,96029.69
2022-12-11T08:54:57.962Z,96028.38
2022-12-11T08:57:24.571Z,96012.44
2022-12-11T08:59:51.182Z,96022.28
2022-12-11T09:02:17.872Z,96022.69
2022-12-11T09:04:44.644Z,96022.19
2022-12-11T09:07:11.263Z,96015.25
2022-12-11T09:09:38.128Z,96014.88
2022-12-11T09:12:05.008Z,96014.50
2022-12-11T09:14:32.153Z,96012.63
2022-12-11T09:16:58.860Z,96018.97
2022-12-11T09:19:30.619Z,96015.16
2022-12-11T09:21:58.809Z,96013.88
2022-12-11T09:24:25.640Z,96008.59
2022-12-11T09:26:52.246Z,96016.81
2022-12-11T09:29:18.885Z,96012.06
2022-12-11T09:31:45.509Z,96017.50
2022-12-11T09:34:12.828Z,96016.81
2022-12-11T09:36:40.217Z,96015.97
2022-12-11T09:39:07.601Z,96009.84
2022-12-11T09:41:39.057Z,96008.44
2022-12-11T09:44:11.164Z,96007.56
2022-12-11T09:46:37.939Z,96007.28
2022-12-11T09:49:04.999Z,96003.09
2022-12-11T09:51:43.528Z,96013.59
2022-12-11T09:54:11.261Z,96012.72
2022-12-11T09:56:56.514Z,96016.94
2022-12-11T09:59:28.844Z,96014.63
2022-12-11T10:02:22.484Z,96023.34
2022-12-11T10:04:55.047Z,96013.09
2022-12-11T10:07:41.962Z,96029.59
2022-12-11T10:10:32.715Z,96028.91
2022-12-11T10:13:07.657Z,96025.66
2022-12-11T10:15:39.452Z,96040.75
2022-12-11T10:18:09.855Z,96034.34
2022-12-11T10:20:36.663Z,96026.13
2022-12-11T10:23:03.759Z,96025.75
2022-12-11T10:25:35.659Z,96018.94
2022-12-11T10:28:15.593Z,96003.34
2022-12-11T10:31:00.539Z,96014.03
2022-12-11T10:33:33.735Z,96006.28
2022-12-11T10:36:00.333Z,96012.69
2022-12-11T10:38:31.267Z,96014.59
2022-12-11T10:41:02.664Z,96007.75
2022-12-11T10:43:34.024Z,96017.81
2022-12-11T10:46:00.735Z,96003.22
2022-12-11T10:48:27.460Z,96005.19
2022-12-11T10:51:01.787Z,96002.72
2022-12-11T10:53:28.520Z,95995.78
2022-12-11T10:55:55.165Z,96003.47
2022-12-11T10:58:23.316Z,96000.97
2022-12-11T11:01:20.124Z,95997.13
2022-12-11T11:04:15.421Z,95994.19
2022-12-11T11:06:42.332Z,95993.13
2022-12-11T11:09:31.158Z,95993.13
2022-12-11T11:11:57.750Z,95991.69
2022-12-11T11:14:24.362Z,95995.41
2022-12-11T11:16:52.249Z,95986.03
2022-12-11T11:19:30.574Z,95997.28
2022-12-11T11:22:01.634Z,95990.97
2022-12-11T11:24:40.794Z,95982.00
2022-12-11T11:27:28.219Z,95985.66
2022-12-11T11:29:55.699Z,95987.03
2022-12-11T11:32:38.375Z,95982.13
2022-12-11T11:35:10.857Z,95977.47
2022-12-11T11:37:38.181Z,95981.56
2022-12-11T11:40:18.556Z,95978.28
2022-12-11T11:43:03.932Z,95977.91
2022-12-11T11:45:38.092Z,95971.78
2022-12-11T11:48:40.678Z,95968.72
2022-12-11T11:51:13.930Z,95960.94
2022-12-11T11:53:40.580Z,95970.56
2022-12-11T11:56:16.471Z,95976.28
2022-12-11T11:58:50.424Z,95972.78
2022-12-11T12:01:18.821Z,95967.66
2022-12-11T12:03:45.706Z,95964.78
2022-12-11T12:06:18.818Z,95961.75
2022-12-11T12:09:14.581Z,95954.59
2022-12-11T12:11:46.734Z,95947.25
2022-12-11T12:14:52.202Z,95947.25
2022-12-11T12:17:55.744Z,95937.00
2022-12-11T12:20:37.354Z,95934.97
2022-12-11T12:23:22.611Z,95942.13
2022-12-11T12:26:17.554Z,95936.00
2022-12-11T12:28:50.187Z,95948.06
2022-12-11T12:31:39.765Z,95941.09
2022-12-11T12:34:40.373Z,95943.75
2022-12-11T12:37:36.414Z,95941.94
2022-12-11T12:40:08.811Z,95937.81
2022-12-11T12:42:56.274Z,95938.25
2022-12-11T12:45:32.059Z,95947.22
2022-12-11T12:47:58.728Z,95945.41
2022-12-11T12:50:26.950Z,95945.19
2022-12-11T12:52:54.569Z,95936.41
2022-12-11T12:55:30.144Z,95941.91
2022-12-11T12:57:58.571Z,95943.75
2022-12-11T13:00:42.336Z,95937.81
2022-12-11T13:03:30.470Z,95937.22
2022-12-11T13:06:01.250Z,95939.28
2022-12-11T13:08:30.863Z,95936.59
2022-12-11T13:11:08.625Z,95937.81
2022-12-11T13:13:38.113Z,95934.53
2022-12-11T13:16:16.964Z,95926.78
2022-12-11T13:18:44.996Z,95928.63
2022-12-11T13:21:26.335Z,95920.84
2022-12-11T13:23:53.062Z,95925.75
2022-12-11T13:26:32.773Z,95923.13
2022-12-11T13:28:59.433Z,95917.81
2022-12-11T13:31:38.867Z,95918.41
2022-12-11T13:34:23.641Z,95916.78
2022-12-11T13:36:51.872Z,95926.78
2022-12-11T13:39:26.165Z,95916.56
2022-12-11T13:41:55.075Z,95921.47
2022-12-11T13:44:27.438Z,95917.59
2022-12-11T13:46:55.346Z,95911.66
2022-12-11T13:49:27.716Z,95913.91
2022-12-11T13:51:57.016Z,95910.25
2022-12-11T13:54:23.725Z,95918.63
2022-12-11T13:57:00.350Z,95922.69
2022-12-11T13:59:33.746Z,95916.97
2022-12-11T14:02:04.109Z,95923.94
2022-12-11T14:04:30.861Z,95918.00
2022-12-11T14:06:57.586Z,95924.34
2022-12-11T14:09:25.199Z,95918.41
2022-12-11T14:11:56.661Z,95923.94
2022-12-11T14:14:31.222Z,95919.84
2022-12-11T14:16:57.988Z,95916.78
2022-12-11T14:19:24.798Z,95923.72
2022-12-11T14:21:59.142Z,95916.56
2022-12-11T14:24:25.807Z,95921.06
2022-12-11T14:26:52.975Z,95922.69
2022-12-11T14:29:31.514Z,95925.16
2022-12-11T14:32:03.111Z,95921.06
2022-12-11T14:34:34.952Z,95920.22
2022-12-11T14:37:02.519Z,95919.41
2022-12-11T14:39:38.436Z,95917.75
2022-12-11T14:42:09.061Z,95918.75
2022-12-11T14:44:46.268Z,95912.22
2022-12-11T14:47:24.095Z,95919.16
2022-12-11T14:50:03.564Z,95923.03
2022-12-11T14:52:36.309Z,95927.88
2022-12-11T14:55:08.261Z,95929.94
2022-12-11T14:57:34.925Z,95931.59
2022-12-11T15:00:01.590Z,95928.41
2022-12-11T15:02:32.926Z,95927.88
2022-12-11T15:05:16.988Z,95931.84
2022-12-11T15:07:53.566Z,95928.41
2022-12-11T15:10:29.463Z,95928.97
2022-12-11T15:12:56.103Z,95924.25
2022-12-11T15:15:22.748Z,95926.31
2022-12-11T15:17:52.705Z,95936.28
2022-12-11T15:20:29.431Z,95937.47
2022-12-11T15:22:58.020Z,95935.41
2022-12-11T15:25:26.947Z,95939.34
2022-12-11T15:27:58.223Z,95929.84
2022-12-11T15:30:26.798Z,95942.13
2022-12-11T15:33:17.326Z,95941.94
2022-12-11T15:35:56.426Z,95935.84
2022-12-11T15:38:33.640Z,95945.22
2022-12-11T15:41:00.447Z,95932.91
2022-12-11T15:43:27.574Z,95935.63
2022-12-11T15:45:54.264Z,95944.56
2022-12-11T15:48:20.930Z,95949.75
2022-12-11T15:50:47.566Z,95955.88
2022-12-11T15:53:14.222Z,95953.38
2022-12-11T15:55:40.940Z,95954.19
2022-12-11T15:58:08.850Z,95951.66
2022-12-11T16:00:35.497Z,95957.00
2022-12-11T16:03:02.179Z,95956.75
2022-12-11T16:05:28.830Z,95953.44
2022-12-11T16:07:55.480Z,95951.78
2022-12-11T16:10:22.180Z,95964.41
2022-12-11T16:12:48.797Z,95962.69
2022-12-11T16:15:21.637Z,95967.94
2022-12-11T16:17:50.003Z,95965.38
2022-12-11T16:20:16.661Z,95969.34
2022-12-11T16:22:43.302Z,95968.75
2022-12-11T16:25:10.275Z,95968.56
2022-12-11T16:27:37.138Z,95978.66
2022-12-11T16:30:03.910Z,95975.19
2022-12-11T16:32:33.628Z,95976.81
2022-12-11T16:35:03.947Z,95975.19
2022-12-11T16:37:30.546Z,95975.19
2022-12-11T16:39:57.149Z,95974.38
2022-12-11T16:42:23.790Z,95971.34
2022-12-11T16:44:50.545Z,95959.50
2022-12-11T16:47:17.264Z,95955.78
2022-12-11T16:49:43.916Z,95961.47
2022-12-11T16:52:10.524Z,95964.75
2022-12-11T16:54:37.294Z,95958.88
2022-12-11T16:57:04.013Z,95959.00
2022-12-11T16:59:36.645Z,95958.63
2022-12-11T17:02:04.060Z,95963.09
2022-12-11T17:04:30.715Z,95971.34
2022-12-11T17:06:57.487Z,95975.41
2022-12-11T17:09:24.186Z,95975.53
2022-12-11T17:11:50.879Z,95977.44
2022-12-11T17:14:17.575Z,95971.25
2022-12-11T17:16:44.222Z,95980.19
2022-12-11T17:19:10.865Z,95981.91
2022-12-11T17:21:37.543Z,95978.03
2022-12-11T17:24:04.257Z,95980.09
2022-12-11T17:26:31.260Z,95981.34
2022-12-11T17:28:57.911Z,95977.69
2022-12-11T17:31:24.630Z,95983.75
2022-12-11T17:33:51.384Z,95987.06
2022-12-11T17:36:20.277Z,95982.56
2022-12-11T17:38:47.268Z,95983.84
2022-12-11T17:41:20.039Z,95979.13
2022-12-11T17:43:48.373Z,95976.78
2022-12-11T17:46:15.089Z,95978.22
2022-12-11T17:48:44.303Z,95979.59
2022-12-11T17:51:12.531Z,95975.44
2022-12-11T17:53:39.183Z,95975.75
2022-12-11T17:56:07.528Z,95961.59
2022-12-11T17:58:34.210Z,95970.22
2022-12-11T18:01:03.528Z,95971.31
2022-12-11T18:03:30.209Z,95968.28
2022-12-11T18:05:57.117Z,95965.06
2022-12-11T18:08:27.240Z,95965.22
2022-12-11T18:10:53.959Z,95968.94
2022-12-11T18:13:20.866Z,95972.44
2022-12-11T18:15:47.604Z,95971.59
2022-12-11T18:18:14.344Z,95971.22
2022-12-11T18:20:40.943Z,95967.19
2022-12-11T18:23:07.559Z,95971.63
2022-12-11T18:25:34.250Z,95971.22
2022-12-11T18:28:01.079Z,95969.16
2022-12-11T18:30:27.710Z,95975.28
2022-12-11T18:32:54.398Z,95972.22
2022-12-11T18:35:21.121Z,95977.59
2022-12-11T18:37:47.775Z,95982.25
2022-12-11T18:40:14.441Z,95978.97
2022-12-11T18:42:44.310Z,95979.91
2022-12-11T18:45:11.377Z,95976.38
2022-12-11T18:47:38.164Z,95977.09
2022-12-11T18:50:08.042Z,95981.19
2022-12-11T18:52:35.191Z,95985.00
2022-12-11T18:55:01.912Z,95993.97
2022-12-11T18:57:28.603Z,95994.41
2022-12-11T18:59:55.233Z,95992.56
2022-12-11T19:02:21.977Z,95992.69
2022-12-11T19:04:48.717Z,95994.41
2022-12-11T19:07:15.403Z,95995.59
2022-12-11T19:09:47.616Z,95991.66
2022-12-11T19:12:14.805Z,96001.03
2022-12-11T19:14:41.972Z,95994.59
2022-12-11T19:17:08.635Z,95991.41
2022-12-11T19:19:35.382Z,95989.38
2022-12-11T19:22:02.028Z,95997.59
2022-12-11T19:24:28.752Z,96000.00
2022-12-11T19:26:55.424Z,95988.44
2022-12-11T19:29:26.856Z,96000.47
2022-12-11T19:31:53.885Z,95993.53
2022-12-11T19:34:20.594Z,95996.03
2022-12-11T19:36:47.276Z,95998.91
2022-12-11T19:39:13.937Z,95998.41
2022-12-11T19:41:40.649Z,95987.19
2022-12-11T19:44:07.445Z,95988.47
2022-12-11T19:46:34.308Z,95991.34
2022-12-11T19:49:00.997Z,95987.06
2022-12-11T19:51:38.232Z,95996.81
2022-12-11T19:54:05.997Z,95994.78
2022-12-11T19:56:32.898Z,95994.56
2022-12-11T19:59:01.153Z,95993.34
2022-12-11T20:01:30.560Z,96003.19
2022-12-11T20:03:58.733Z,95999.66
2022-12-11T20:06:27.530Z,96001.31
2022-12-11T20:08:54.237Z,96011.78
2022-12-11T20:11:20.971Z,96002.41
2022-12-11T20:13:47.814Z,96010.44
2022-12-11T20:16:15.628Z,96009.47
2022-12-11T20:18:42.356Z,96013.81
2022-12-11T20:21:11.421Z,96017.28
2022-12-11T20:23:38.051Z,96006.84
2022-12-11T20:26:08.023Z,96007.09
2022-12-11T20:28:34.627Z,96006.47
2022-12-11T20:31:19.733Z,96006.72
2022-12-11T20:33:47.025Z,96004.28
2022-12-11T20:36:15.800Z,96005.28
2022-12-11T20:38:42.813Z,96003.22
2022-12-11T20:41:10.280Z,96002.63
2022-12-11T20:43:37.376Z,95995.88
2022-12-11T20:46:07.941Z,96000.34
2022-12-11T20:48:34.598Z,96003.56
2022-12-11T20:51:05.399Z,95996.22
2022-12-11T20:53:32.076Z,95987.84
2022-12-11T20:55:58.696Z,95992.63
2022-12-11T20:58:25.363Z,95994.19
2022-12-11T21:00:52.705Z,95985.22
2022-12-11T21:03:19.437Z,95990.69
2022-12-11T21:05:46.065Z,95985.59
2022-12-11T21:08:12.841Z,95982.97
2022-12-11T21:10:43.750Z,95985.19
2022-12-11T21:13:10.456Z,95982.81
2022-12-11T21:15:37.942Z,95982.81
2022-12-11T21:18:04.979Z,95990.06
2022-12-11T21:20:31.735Z,95983.59
2022-12-11T21:22:58.333Z,95986.66
2022-12-11T21:25:25.266Z,95987.25
2022-12-11T21:27:51.889Z,95984.53
2022-12-11T21:30:18.525Z,95981.50
2022-12-11T21:32:45.205Z,95984.03
2022-12-11T21:35:12.474Z,95981.97
2022-12-11T21:37:39.390Z,95986.47
2022-12-11T21:40:06.564Z,95990.53
2022-12-11T21:42:33.208Z,95986.00
2022-12-11T21:45:52.311Z,95984.50
2022-12-11T21:47:46.489Z,95989.34
2022-12-11T21:50:13.118Z,95989.44
2022-12-11T21:52:39.742Z,95989.31
2022-12-11T21:55:06.741Z,95993.13
2022-12-11T21:57:33.411Z,95993.31
2022-12-11T22:00:00.056Z,96001.69
2022-12-11T22:02:26.855Z,95996.38
2022-12-11T22:04:53.520Z,95996.22
2022-12-11T22:07:20.146Z,95993.25
2022-12-11T22:09:46.790Z,95994.25
2022-12-11T22:12:31.525Z,96000.56
2022-12-11T22:14:58.133Z,95994.22
2022-12-11T22:17:24.788Z,96000.22
2022-12-11T22:19:51.470Z,96008.22
2022-12-11T22:22:18.084Z,96000.84
2022-12-11T22:24:44.737Z,96006.13
2022-12-11T22:27:11.386Z,96006.31
2022-12-11T22:29:37.974Z,95999.78
2022-12-11T22:32:04.626Z,96000.00
2022-12-11T22:34:31.222Z,96001.44
2022-12-11T22:36:57.811Z,96008.03
2022-12-11T22:39:24.466Z,96006.00
2022-12-11T22:41:51.115Z,96000.03
2022-12-11T22:44:19.252Z,96008.59
2022-12-11T22:46:49.867Z,95999.25
2022-12-11T22:49:17.912Z,95998.75
2022-12-11T22:51:44.678Z,96001.00
2022-12-11T22:54:11.278Z,95997.59
2022-12-11T22:56:38.333Z,96001.31
2022-12-11T22:59:04.927Z,96003.56
2022-12-11T23:01:31.557Z,96008.06
2022-12-11T23:03:58.237Z,96002.13
2022-12-11T23:06:24.906Z,96000.69
2022-12-11T23:08:52.909Z,96008.16
2022-12-11T23:11:24.933Z,96009.22
2022-12-11T23:13:52.035Z,95997.72
2022-12-11T23:16:18.846Z,96006.13
2022-12-11T23:18:45.488Z,96000.22
2022-12-11T23:21:12.203Z,96003.50
2022-12-11T23:23:38.800Z,96006.41
2022-12-11T23:26:05.833Z,95998.03
2022-12-11T23:28:32.565Z,96009.06
2022-12-11T23:30:59.415Z,96014.34
2022-12-11T23:33:26.215Z,96010.94
2022-12-11T23:35:52.967Z,96008.22
2022-12-11T23:38:19.629Z,96021.09
2022-12-11T23:40:46.284Z,96017.81
2022-12-11T23:43:12.945Z,96017.38
2022-12-11T23:45:39.544Z,96022.09
2022-12-11T23:48:06.177Z,96017.22
2022-12-11T23:50:32.909Z,96013.75
2022-12-11T23:52:59.590Z,96018.22
2022-12-11T23:55:26.199Z,96021.09
2022-12-11T23:57:53.349Z,96019.28
